Pecan Way Terrace, South Carolina
Current Conditions -  °F | °C
As of 10:53 AM on Sunday 25 Jan 2015 (Local Time) from KOGB Reporting Station
Clear Clear  
Wind Chill: 48°   Ceiling: Unl
Heat Index: 48°   Visibility: 10mi
Dew Point: 32°   Wind: 3mph
Humidity: 54%   Direction: 220°SW
Pressure: 30"   Gusts: NA
Location:  33.4964°N, 80.8317°W
Report Text: KOGB 251553Z AUTO 22003KT 10SM CLR 09/00 A3000 RMK AO2 SLP159 T00890000
Loading
Personal Weather Stations






























Interactive Weather Map New forecast layout! Learn more

10-Day Weather Forecast

Advertisements
Track Severe Weather on mobile